sensor_id;sensor_type;location;lat;lon;timestamp;P1;durP1;ratioP1;P2;durP2;ratioP2
1376;SDS011;682;52.502;13.488;2022-12-22T00:00:44;25.13;;;17.13;;
1376;SDS011;682;52.502;13.488;2022-12-22T00:06:30;18.00;;;16.23;;
1376;SDS011;682;52.502;13.488;2022-12-22T00:09:15;19.02;;;17.02;;
1376;SDS011;682;52.502;13.488;2022-12-22T00:12:01;21.13;;;17.73;;
1376;SDS011;682;52.502;13.488;2022-12-22T00:14:45;17.77;;;15.88;;
1376;SDS011;682;52.502;13.488;2022-12-22T00:17:31;18.48;;;16.48;;
1376;SDS011;682;52.502;13.488;2022-12-22T00:20:19;18.73;;;15.98;;
1376;SDS011;682;52.502;13.488;2022-12-22T00:23:07;23.88;;;17.30;;
1376;SDS011;682;52.502;13.488;2022-12-22T00:25:52;20.20;;;16.38;;
1376;SDS011;682;52.502;13.488;2022-12-22T00:28:39;18.60;;;16.70;;
1376;SDS011;682;52.502;13.488;2022-12-22T00:31:25;18.98;;;16.98;;
1376;SDS011;682;52.502;13.488;2022-12-22T00:34:11;19.95;;;17.50;;
1376;SDS011;682;52.502;13.488;2022-12-22T00:36:59;20.05;;;17.85;;
1376;SDS011;682;52.502;13.488;2022-12-22T00:39:44;19.73;;;17.65;;
1376;SDS011;682;52.502;13.488;2022-12-22T00:42:31;18.08;;;15.13;;
1376;SDS011;682;52.502;13.488;2022-12-22T00:45:21;18.90;;;16.80;;
1376;SDS011;682;52.502;13.488;2022-12-22T00:48:07;19.50;;;16.02;;
1376;SDS011;682;52.502;13.488;2022-12-22T00:51:00;20.38;;;17.23;;
1376;SDS011;682;52.502;13.488;2022-12-22T00:53:44;20.23;;;18.05;;
1376;SDS011;682;52.502;13.488;2022-12-22T00:56:29;18.85;;;16.55;;
1376;SDS011;682;52.502;13.488;2022-12-22T00:59:13;19.08;;;16.67;;
1376;SDS011;682;52.502;13.488;2022-12-22T01:01:59;17.58;;;15.75;;
1376;SDS011;682;52.502;13.488;2022-12-22T01:04:44;20.17;;;16.92;;
1376;SDS011;682;52.502;13.488;2022-12-22T01:07:31;19.88;;;17.00;;
1376;SDS011;682;52.502;13.488;2022-12-22T01:10:19;17.48;;;15.57;;
1376;SDS011;682;52.502;13.488;2022-12-22T01:13:07;19.20;;;17.17;;
1376;SDS011;682;52.502;13.488;2022-12-22T01:16:00;20.13;;;16.40;;
1376;SDS011;682;52.502;13.488;2022-12-22T01:18:46;19.08;;;16.33;;
1376;SDS011;682;52.502;13.488;2022-12-22T01:21:35;18.50;;;16.25;;
1376;SDS011;682;52.502;13.488;2022-12-22T01:24:27;18.95;;;15.15;;
1376;SDS011;682;52.502;13.488;2022-12-22T01:27:13;18.30;;;15.15;;
1376;SDS011;682;52.502;13.488;2022-12-22T01:30:03;20.38;;;16.73;;
1376;SDS011;682;52.502;13.488;2022-12-22T01:32:48;17.77;;;14.63;;
1376;SDS011;682;52.502;13.488;2022-12-22T01:35:40;18.13;;;16.23;;
1376;SDS011;682;52.502;13.488;2022-12-22T01:38:25;20.35;;;17.20;;
1376;SDS011;682;52.502;13.488;2022-12-22T01:41:11;17.80;;;15.70;;
1376;SDS011;682;52.502;13.488;2022-12-22T01:44:00;17.55;;;15.68;;
1376;SDS011;682;52.502;13.488;2022-12-22T01:46:45;21.50;;;17.35;;
1376;SDS011;682;52.502;13.488;2022-12-22T01:49:32;19.67;;;16.33;;
1376;SDS011;682;52.502;13.488;2022-12-22T01:52:26;18.63;;;16.20;;
1376;SDS011;682;52.502;13.488;2022-12-22T01:55:19;18.35;;;16.30;;
1376;SDS011;682;52.502;13.488;2022-12-22T01:58:05;18.05;;;15.52;;
1376;SDS011;682;52.502;13.488;2022-12-22T02:01:01;19.10;;;16.15;;
1376;SDS011;682;52.502;13.488;2022-12-22T02:03:45;18.15;;;16.05;;
1376;SDS011;682;52.502;13.488;2022-12-22T02:06:30;18.67;;;15.60;;
1376;SDS011;682;52.502;13.488;2022-12-22T02:09:23;19.23;;;15.88;;
1376;SDS011;682;52.502;13.488;2022-12-22T02:12:23;19.58;;;17.00;;
1376;SDS011;682;52.502;13.488;2022-12-22T02:15:20;18.80;;;16.45;;
1376;SDS011;682;52.502;13.488;2022-12-22T02:18:11;19.45;;;16.45;;
1376;SDS011;682;52.502;13.488;2022-12-22T02:21:06;19.83;;;15.65;;
1376;SDS011;682;52.502;13.488;2022-12-22T02:24:04;21.08;;;16.50;;
1376;SDS011;682;52.502;13.488;2022-12-22T02:27:00;22.17;;;16.73;;
1376;SDS011;682;52.502;13.488;2022-12-22T02:29:47;19.33;;;16.02;;
1376;SDS011;682;52.502;13.488;2022-12-22T02:32:39;18.38;;;16.00;;
1376;SDS011;682;52.502;13.488;2022-12-22T02:35:25;19.77;;;16.52;;
1376;SDS011;682;52.502;13.488;2022-12-22T02:38:18;17.48;;;15.48;;
1376;SDS011;682;52.502;13.488;2022-12-22T02:41:12;18.77;;;15.35;;
1376;SDS011;682;52.502;13.488;2022-12-22T02:44:08;19.08;;;15.10;;
1376;SDS011;682;52.502;13.488;2022-12-22T02:47:07;16.63;;;13.95;;
1376;SDS011;682;52.502;13.488;2022-12-22T02:50:04;17.20;;;14.68;;
1376;SDS011;682;52.502;13.488;2022-12-22T02:52:59;18.90;;;14.55;;
1376;SDS011;682;52.502;13.488;2022-12-22T02:55:47;18.45;;;14.52;;
1376;SDS011;682;52.502;13.488;2022-12-22T02:58:31;17.58;;;14.95;;
1376;SDS011;682;52.502;13.488;2022-12-22T03:01:22;17.63;;;15.15;;
1376;SDS011;682;52.502;13.488;2022-12-22T03:04:07;18.83;;;14.32;;
1376;SDS011;682;52.502;13.488;2022-12-22T03:06:51;17.65;;;14.98;;
1376;SDS011;682;52.502;13.488;2022-12-22T03:09:41;17.08;;;15.10;;
1376;SDS011;682;52.502;13.488;2022-12-22T03:12:25;18.77;;;15.40;;
1376;SDS011;682;52.502;13.488;2022-12-22T03:15:10;19.98;;;16.23;;
1376;SDS011;682;52.502;13.488;2022-12-22T03:18:01;17.52;;;15.35;;
1376;SDS011;682;52.502;13.488;2022-12-22T03:20:46;18.17;;;15.23;;
1376;SDS011;682;52.502;13.488;2022-12-22T03:23:30;18.15;;;15.15;;
1376;SDS011;682;52.502;13.488;2022-12-22T03:26:21;16.40;;;14.52;;
1376;SDS011;682;52.502;13.488;2022-12-22T03:28:48;19.08;;;15.50;;
1376;SDS011;682;52.502;13.488;2022-12-22T03:31:19;17.35;;;15.40;;
1376;SDS011;682;52.502;13.488;2022-12-22T03:33:47;16.95;;;14.02;;
1376;SDS011;682;52.502;13.488;2022-12-22T03:36:19;19.17;;;16.50;;
1376;SDS011;682;52.502;13.488;2022-12-22T03:38:46;18.55;;;14.50;;
1376;SDS011;682;52.502;13.488;2022-12-22T03:41:13;17.77;;;15.63;;
1376;SDS011;682;52.502;13.488;2022-12-22T03:43:59;20.17;;;15.40;;
1376;SDS011;682;52.502;13.488;2022-12-22T03:46:42;16.98;;;14.30;;
1376;SDS011;682;52.502;13.488;2022-12-22T03:49:11;15.93;;;14.32;;
1376;SDS011;682;52.502;13.488;2022-12-22T03:51:40;17.95;;;14.65;;
1376;SDS011;682;52.502;13.488;2022-12-22T03:54:08;20.30;;;15.57;;
1376;SDS011;682;52.502;13.488;2022-12-22T03:56:39;18.30;;;14.63;;
1376;SDS011;682;52.502;13.488;2022-12-22T03:59:07;18.45;;;14.90;;
1376;SDS011;682;52.502;13.488;2022-12-22T04:01:37;18.20;;;14.60;;
1376;SDS011;682;52.502;13.488;2022-12-22T04:04:06;19.05;;;14.93;;
1376;SDS011;682;52.502;13.488;2022-12-22T04:06:48;17.67;;;14.75;;
1376;SDS011;682;52.502;13.488;2022-12-22T04:09:19;20.20;;;15.32;;
1376;SDS011;682;52.502;13.488;2022-12-22T04:11:48;18.83;;;15.13;;
1376;SDS011;682;52.502;13.488;2022-12-22T04:14:33;21.30;;;14.65;;
1376;SDS011;682;52.502;13.488;2022-12-22T04:17:05;17.35;;;14.20;;
1376;SDS011;682;52.502;13.488;2022-12-22T04:19:33;20.55;;;16.38;;
1376;SDS011;682;52.502;13.488;2022-12-22T04:22:07;17.50;;;15.57;;
1376;SDS011;682;52.502;13.488;2022-12-22T04:24:37;19.85;;;15.50;;
1376;SDS011;682;52.502;13.488;2022-12-22T04:27:06;20.10;;;16.40;;
1376;SDS011;682;52.502;13.488;2022-12-22T04:29:32;19.38;;;15.85;;
1376;SDS011;682;52.502;13.488;2022-12-22T04:32:04;21.10;;;15.65;;
1376;SDS011;682;52.502;13.488;2022-12-22T04:34:32;24.33;;;16.55;;
1376;SDS011;682;52.502;13.488;2022-12-22T04:37:03;18.95;;;15.45;;
1376;SDS011;682;52.502;13.488;2022-12-22T04:39:32;20.85;;;16.45;;
1376;SDS011;682;52.502;13.488;2022-12-22T04:42:05;20.00;;;17.13;;
1376;SDS011;682;52.502;13.488;2022-12-22T04:44:32;19.90;;;17.17;;
1376;SDS011;682;52.502;13.488;2022-12-22T04:47:04;23.63;;;18.08;;
1376;SDS011;682;52.502;13.488;2022-12-22T04:49:31;22.13;;;17.30;;
1376;SDS011;682;52.502;13.488;2022-12-22T04:51:59;24.90;;;19.25;;
1376;SDS011;682;52.502;13.488;2022-12-22T04:54:26;25.83;;;20.25;;
1376;SDS011;682;52.502;13.488;2022-12-22T04:57:02;24.15;;;20.58;;
1376;SDS011;682;52.502;13.488;2022-12-22T04:59:29;22.75;;;17.92;;
1376;SDS011;682;52.502;13.488;2022-12-22T05:02:02;19.05;;;16.40;;
1376;SDS011;682;52.502;13.488;2022-12-22T05:04:29;20.33;;;17.25;;
1376;SDS011;682;52.502;13.488;2022-12-22T05:06:58;22.42;;;18.55;;
1376;SDS011;682;52.502;13.488;2022-12-22T05:09:25;22.38;;;18.15;;
1376;SDS011;682;52.502;13.488;2022-12-22T05:11:52;22.55;;;18.90;;
1376;SDS011;682;52.502;13.488;2022-12-22T05:14:49;25.40;;;20.65;;
1376;SDS011;682;52.502;13.488;2022-12-22T05:17:16;26.10;;;18.50;;
1376;SDS011;682;52.502;13.488;2022-12-22T05:19:46;24.05;;;18.80;;
1376;SDS011;682;52.502;13.488;2022-12-22T05:22:13;24.00;;;18.60;;
1376;SDS011;682;52.502;13.488;2022-12-22T05:24:42;23.02;;;18.90;;
1376;SDS011;682;52.502;13.488;2022-12-22T05:27:12;24.38;;;18.77;;
1376;SDS011;682;52.502;13.488;2022-12-22T05:29:41;22.55;;;19.90;;
1376;SDS011;682;52.502;13.488;2022-12-22T05:32:08;22.00;;;17.45;;
1376;SDS011;682;52.502;13.488;2022-12-22T05:34:43;25.10;;;18.15;;
1376;SDS011;682;52.502;13.488;2022-12-22T05:37:24;28.27;;;19.85;;
1376;SDS011;682;52.502;13.488;2022-12-22T05:39:51;26.15;;;18.70;;
1376;SDS011;682;52.502;13.488;2022-12-22T05:42:23;24.17;;;19.35;;
1376;SDS011;682;52.502;13.488;2022-12-22T05:45:03;26.15;;;20.08;;
1376;SDS011;682;52.502;13.488;2022-12-22T05:47:32;25.23;;;21.20;;
1376;SDS011;682;52.502;13.488;2022-12-22T05:50:06;24.80;;;19.52;;
1376;SDS011;682;52.502;13.488;2022-12-22T05:52:34;26.67;;;22.35;;
1376;SDS011;682;52.502;13.488;2022-12-22T05:55:01;28.30;;;21.40;;
1376;SDS011;682;52.502;13.488;2022-12-22T05:57:30;26.02;;;19.23;;
1376;SDS011;682;52.502;13.488;2022-12-22T05:59:57;28.63;;;22.52;;
1376;SDS011;682;52.502;13.488;2022-12-22T06:02:24;27.40;;;21.35;;
1376;SDS011;682;52.502;13.488;2022-12-22T06:04:51;26.98;;;22.50;;
1376;SDS011;682;52.502;13.488;2022-12-22T06:07:19;25.52;;;20.63;;
1376;SDS011;682;52.502;13.488;2022-12-22T06:09:49;25.13;;;19.67;;
1376;SDS011;682;52.502;13.488;2022-12-22T06:12:18;27.50;;;20.10;;
1376;SDS011;682;52.502;13.488;2022-12-22T06:14:50;28.63;;;21.58;;
1376;SDS011;682;52.502;13.488;2022-12-22T06:17:19;26.35;;;21.15;;
1376;SDS011;682;52.502;13.488;2022-12-22T06:19:46;27.65;;;20.65;;
1376;SDS011;682;52.502;13.488;2022-12-22T06:22:14;25.08;;;21.10;;
1376;SDS011;682;52.502;13.488;2022-12-22T06:24:46;27.85;;;21.40;;
1376;SDS011;682;52.502;13.488;2022-12-22T06:27:23;28.17;;;21.70;;
1376;SDS011;682;52.502;13.488;2022-12-22T06:29:51;26.15;;;19.92;;
1376;SDS011;682;52.502;13.488;2022-12-22T06:32:22;28.60;;;21.30;;
1376;SDS011;682;52.502;13.488;2022-12-22T06:34:49;30.08;;;23.48;;
1376;SDS011;682;52.502;13.488;2022-12-22T06:37:17;25.83;;;20.98;;
1376;SDS011;682;52.502;13.488;2022-12-22T06:39:49;28.33;;;19.90;;
1376;SDS011;682;52.502;13.488;2022-12-22T06:42:16;24.73;;;20.67;;
1376;SDS011;682;52.502;13.488;2022-12-22T06:45:02;25.77;;;20.20;;
1376;SDS011;682;52.502;13.488;2022-12-22T06:47:31;26.08;;;19.52;;
1376;SDS011;682;52.502;13.488;2022-12-22T06:50:00;21.98;;;18.95;;
1376;SDS011;682;52.502;13.488;2022-12-22T06:52:27;21.33;;;18.88;;
1376;SDS011;682;52.502;13.488;2022-12-22T06:54:54;26.25;;;19.42;;
1376;SDS011;682;52.502;13.488;2022-12-22T06:57:27;27.17;;;20.10;;
1376;SDS011;682;52.502;13.488;2022-12-22T06:59:56;24.67;;;19.67;;
1376;SDS011;682;52.502;13.488;2022-12-22T07:02:26;24.95;;;19.08;;
1376;SDS011;682;52.502;13.488;2022-12-22T07:04:53;26.13;;;18.92;;
1376;SDS011;682;52.502;13.488;2022-12-22T07:07:32;28.17;;;20.58;;
1376;SDS011;682;52.502;13.488;2022-12-22T07:09:59;24.02;;;18.10;;
1376;SDS011;682;52.502;13.488;2022-12-22T07:12:27;23.20;;;18.80;;
1376;SDS011;682;52.502;13.488;2022-12-22T07:15:00;28.88;;;19.98;;
1376;SDS011;682;52.502;13.488;2022-12-22T07:17:32;28.42;;;20.38;;
1376;SDS011;682;52.502;13.488;2022-12-22T07:20:01;23.88;;;20.40;;
1376;SDS011;682;52.502;13.488;2022-12-22T07:22:31;26.70;;;19.15;;
1376;SDS011;682;52.502;13.488;2022-12-22T07:24:58;25.60;;;20.70;;
1376;SDS011;682;52.502;13.488;2022-12-22T07:27:27;26.27;;;20.48;;
1376;SDS011;682;52.502;13.488;2022-12-22T07:30:02;26.45;;;21.10;;
1376;SDS011;682;52.502;13.488;2022-12-22T07:32:31;27.45;;;18.90;;
1376;SDS011;682;52.502;13.488;2022-12-22T07:34:58;28.43;;;21.00;;
1376;SDS011;682;52.502;13.488;2022-12-22T07:37:33;26.85;;;19.48;;
1376;SDS011;682;52.502;13.488;2022-12-22T07:40:10;25.83;;;19.52;;
1376;SDS011;682;52.502;13.488;2022-12-22T07:42:40;29.45;;;20.05;;
1376;SDS011;682;52.502;13.488;2022-12-22T07:45:09;26.95;;;20.05;;
1376;SDS011;682;52.502;13.488;2022-12-22T07:47:40;26.50;;;22.20;;
1376;SDS011;682;52.502;13.488;2022-12-22T07:50:12;26.27;;;19.40;;
1376;SDS011;682;52.502;13.488;2022-12-22T07:52:52;24.25;;;19.55;;
1376;SDS011;682;52.502;13.488;2022-12-22T07:55:20;26.70;;;19.47;;
1376;SDS011;682;52.502;13.488;2022-12-22T07:57:47;26.38;;;19.90;;
1376;SDS011;682;52.502;13.488;2022-12-22T08:00:22;28.33;;;21.23;;
1376;SDS011;682;52.502;13.488;2022-12-22T08:02:52;28.88;;;21.17;;
1376;SDS011;682;52.502;13.488;2022-12-22T08:05:29;29.50;;;19.77;;
1376;SDS011;682;52.502;13.488;2022-12-22T08:08:01;30.52;;;19.58;;
1376;SDS011;682;52.502;13.488;2022-12-22T08:10:28;23.35;;;18.08;;
1376;SDS011;682;52.502;13.488;2022-12-22T08:13:04;28.92;;;19.50;;
1376;SDS011;682;52.502;13.488;2022-12-22T08:15:42;24.83;;;17.92;;
1376;SDS011;682;52.502;13.488;2022-12-22T08:18:10;23.10;;;18.90;;
1376;SDS011;682;52.502;13.488;2022-12-22T08:20:46;27.40;;;19.13;;
1376;SDS011;682;52.502;13.488;2022-12-22T08:23:28;23.05;;;17.60;;
1376;SDS011;682;52.502;13.488;2022-12-22T08:26:01;22.58;;;16.67;;
1376;SDS011;682;52.502;13.488;2022-12-22T08:28:32;26.20;;;18.15;;
1376;SDS011;682;52.502;13.488;2022-12-22T08:31:09;22.25;;;18.17;;
1376;SDS011;682;52.502;13.488;2022-12-22T08:33:40;24.92;;;18.15;;
1376;SDS011;682;52.502;13.488;2022-12-22T08:36:07;25.67;;;18.40;;
1376;SDS011;682;52.502;13.488;2022-12-22T08:38:40;26.00;;;18.13;;
1376;SDS011;682;52.502;13.488;2022-12-22T08:41:09;24.90;;;17.48;;
1376;SDS011;682;52.502;13.488;2022-12-22T08:43:41;23.65;;;18.00;;
1376;SDS011;682;52.502;13.488;2022-12-22T08:46:08;25.30;;;17.73;;
1376;SDS011;682;52.502;13.488;2022-12-22T08:48:41;23.10;;;19.23;;
1376;SDS011;682;52.502;13.488;2022-12-22T08:51:10;23.40;;;18.85;;
1376;SDS011;682;52.502;13.488;2022-12-22T08:53:40;22.40;;;18.08;;
1376;SDS011;682;52.502;13.488;2022-12-22T08:56:07;24.85;;;18.65;;
1376;SDS011;682;52.502;13.488;2022-12-22T08:58:34;24.48;;;18.42;;
1376;SDS011;682;52.502;13.488;2022-12-22T09:01:01;21.40;;;17.63;;
1376;SDS011;682;52.502;13.488;2022-12-22T09:03:28;24.30;;;18.35;;
1376;SDS011;682;52.502;13.488;2022-12-22T09:06:00;21.20;;;16.65;;
1376;SDS011;682;52.502;13.488;2022-12-22T09:08:27;21.65;;;16.65;;
1376;SDS011;682;52.502;13.488;2022-12-22T09:10:54;23.02;;;16.95;;
1376;SDS011;682;52.502;13.488;2022-12-22T09:13:29;20.27;;;16.70;;
1376;SDS011;682;52.502;13.488;2022-12-22T09:15:58;22.88;;;17.55;;
1376;SDS011;682;52.502;13.488;2022-12-22T09:18:29;23.13;;;17.50;;
1376;SDS011;682;52.502;13.488;2022-12-22T09:20:56;24.15;;;18.30;;
1376;SDS011;682;52.502;13.488;2022-12-22T09:23:30;20.02;;;15.93;;
1376;SDS011;682;52.502;13.488;2022-12-22T09:26:05;21.13;;;18.07;;
1376;SDS011;682;52.502;13.488;2022-12-22T09:28:34;22.70;;;17.60;;
1376;SDS011;682;52.502;13.488;2022-12-22T09:31:02;22.70;;;16.50;;
1376;SDS011;682;52.502;13.488;2022-12-22T09:33:31;20.55;;;15.40;;
1376;SDS011;682;52.502;13.488;2022-12-22T09:36:04;21.38;;;16.73;;
1376;SDS011;682;52.502;13.488;2022-12-22T09:38:34;19.90;;;16.58;;
1376;SDS011;682;52.502;13.488;2022-12-22T09:41:07;22.63;;;17.35;;
1376;SDS011;682;52.502;13.488;2022-12-22T09:43:36;21.45;;;17.27;;
1376;SDS011;682;52.502;13.488;2022-12-22T09:46:03;21.13;;;17.73;;
1376;SDS011;682;52.502;13.488;2022-12-22T09:48:33;25.73;;;17.25;;
1376;SDS011;682;52.502;13.488;2022-12-22T09:51:05;20.00;;;16.98;;
1376;SDS011;682;52.502;13.488;2022-12-22T09:53:39;22.50;;;16.65;;
1376;SDS011;682;52.502;13.488;2022-12-22T09:56:10;20.60;;;17.20;;
1376;SDS011;682;52.502;13.488;2022-12-22T09:58:52;20.58;;;16.92;;
1376;SDS011;682;52.502;13.488;2022-12-22T10:01:27;20.97;;;16.60;;
1376;SDS011;682;52.502;13.488;2022-12-22T10:04:05;23.35;;;17.75;;
1376;SDS011;682;52.502;13.488;2022-12-22T10:06:42;20.63;;;16.13;;
1376;SDS011;682;52.502;13.488;2022-12-22T10:09:24;19.00;;;16.50;;
1376;SDS011;682;52.502;13.488;2022-12-22T10:11:56;21.20;;;16.97;;
1376;SDS011;682;52.502;13.488;2022-12-22T10:14:32;22.40;;;17.63;;
1376;SDS011;682;52.502;13.488;2022-12-22T10:19:52;22.50;;;16.40;;
1376;SDS011;682;52.502;13.488;2022-12-22T10:22:32;18.43;;;16.33;;
1376;SDS011;682;52.502;13.488;2022-12-22T10:25:21;20.37;;;16.60;;
1376;SDS011;682;52.502;13.488;2022-12-22T10:27:51;20.48;;;17.60;;
1376;SDS011;682;52.502;13.488;2022-12-22T10:30:27;22.17;;;16.03;;
1376;SDS011;682;52.502;13.488;2022-12-22T10:33:05;19.07;;;15.77;;
1376;SDS011;682;52.502;13.488;2022-12-22T10:35:42;19.80;;;15.03;;
1376;SDS011;682;52.502;13.488;2022-12-22T10:38:27;20.00;;;15.52;;
1376;SDS011;682;52.502;13.488;2022-12-22T10:41:11;18.92;;;14.88;;
1376;SDS011;682;52.502;13.488;2022-12-22T10:43:47;20.35;;;16.00;;
1376;SDS011;682;52.502;13.488;2022-12-22T10:46:28;18.75;;;14.85;;
1376;SDS011;682;52.502;13.488;2022-12-22T10:49:11;20.73;;;15.93;;
1376;SDS011;682;52.502;13.488;2022-12-22T10:51:42;21.27;;;16.17;;
1376;SDS011;682;52.502;13.488;2022-12-22T10:54:22;17.80;;;15.30;;
1376;SDS011;682;52.502;13.488;2022-12-22T10:57:02;20.27;;;16.37;;
1376;SDS011;682;52.502;13.488;2022-12-22T10:59:32;17.40;;;15.50;;
1376;SDS011;682;52.502;13.488;2022-12-22T11:04:53;21.27;;;15.90;;
1376;SDS011;682;52.502;13.488;2022-12-22T11:07:31;17.60;;;14.73;;
1376;SDS011;682;52.502;13.488;2022-12-22T11:10:06;15.70;;;12.37;;
1376;SDS011;682;52.502;13.488;2022-12-22T11:12:48;20.90;;;15.17;;
1376;SDS011;682;52.502;13.488;2022-12-22T11:15:55;26.23;;;19.13;;
1376;SDS011;682;52.502;13.488;2022-12-22T11:18:51;18.97;;;15.40;;
1376;SDS011;682;52.502;13.488;2022-12-22T11:21:30;17.93;;;15.20;;
1376;SDS011;682;52.502;13.488;2022-12-22T11:24:12;16.53;;;13.80;;
1376;SDS011;682;52.502;13.488;2022-12-22T11:26:54;18.80;;;14.57;;
1376;SDS011;682;52.502;13.488;2022-12-22T11:29:47;15.97;;;14.13;;
1376;SDS011;682;52.502;13.488;2022-12-22T11:32:53;16.60;;;14.50;;
1376;SDS011;682;52.502;13.488;2022-12-22T11:35:45;17.40;;;13.73;;
1376;SDS011;682;52.502;13.488;2022-12-22T11:38:24;21.93;;;15.40;;
1376;SDS011;682;52.502;13.488;2022-12-22T11:41:11;16.90;;;13.73;;
1376;SDS011;682;52.502;13.488;2022-12-22T11:47:23;16.00;;;13.23;;
1376;SDS011;682;52.502;13.488;2022-12-22T11:50:13;16.97;;;13.87;;
1376;SDS011;682;52.502;13.488;2022-12-22T11:52:55;16.20;;;12.97;;
1376;SDS011;682;52.502;13.488;2022-12-22T11:55:44;14.83;;;13.23;;
1376;SDS011;682;52.502;13.488;2022-12-22T11:58:37;14.40;;;12.90;;
1376;SDS011;682;52.502;13.488;2022-12-22T12:01:35;19.47;;;14.97;;
1376;SDS011;682;52.502;13.488;2022-12-22T12:07:33;13.80;;;12.33;;
1376;SDS011;682;52.502;13.488;2022-12-22T12:10:12;14.90;;;13.27;;
1376;SDS011;682;52.502;13.488;2022-12-22T12:12:51;16.70;;;14.73;;
1376;SDS011;682;52.502;13.488;2022-12-22T12:15:31;15.10;;;12.53;;
1376;SDS011;682;52.502;13.488;2022-12-22T12:21:34;15.60;;;13.10;;
1376;SDS011;682;52.502;13.488;2022-12-22T12:24:25;14.13;;;12.20;;
1376;SDS011;682;52.502;13.488;2022-12-22T12:27:17;15.77;;;13.60;;
1376;SDS011;682;52.502;13.488;2022-12-22T12:30:06;15.23;;;13.63;;
1376;SDS011;682;52.502;13.488;2022-12-22T12:33:11;17.17;;;14.27;;
1376;SDS011;682;52.502;13.488;2022-12-22T12:36:16;15.97;;;14.30;;
1376;SDS011;682;52.502;13.488;2022-12-22T12:42:07;15.07;;;13.33;;
1376;SDS011;682;52.502;13.488;2022-12-22T12:44:53;15.93;;;14.23;;
1376;SDS011;682;52.502;13.488;2022-12-22T12:47:30;15.20;;;12.53;;
1376;SDS011;682;52.502;13.488;2022-12-22T12:50:32;15.07;;;12.53;;
1376;SDS011;682;52.502;13.488;2022-12-22T12:53:04;14.93;;;13.30;;
1376;SDS011;682;52.502;13.488;2022-12-22T12:55:49;15.30;;;13.70;;
1376;SDS011;682;52.502;13.488;2022-12-22T12:58:50;16.23;;;13.40;;
1376;SDS011;682;52.502;13.488;2022-12-22T13:10:33;16.47;;;14.03;;
1376;SDS011;682;52.502;13.488;2022-12-22T13:13:09;17.90;;;14.77;;
1376;SDS011;682;52.502;13.488;2022-12-22T13:15:42;15.27;;;13.67;;
1376;SDS011;682;52.502;13.488;2022-12-22T13:21:11;15.30;;;13.70;;
1376;SDS011;682;52.502;13.488;2022-12-22T13:23:54;15.33;;;13.70;;
1376;SDS011;682;52.502;13.488;2022-12-22T13:26:43;17.03;;;14.93;;
1376;SDS011;682;52.502;13.488;2022-12-22T13:29:14;13.43;;;11.97;;
1376;SDS011;682;52.502;13.488;2022-12-22T13:31:54;15.03;;;13.17;;
1376;SDS011;682;52.502;13.488;2022-12-22T13:34:31;16.00;;;13.70;;
1376;SDS011;682;52.502;13.488;2022-12-22T13:37:13;14.77;;;12.53;;
1376;SDS011;682;52.502;13.488;2022-12-22T13:40:07;13.70;;;12.30;;
1376;SDS011;682;52.502;13.488;2022-12-22T13:42:44;14.57;;;11.57;;
1376;SDS011;682;52.502;13.488;2022-12-22T13:45:27;14.10;;;12.40;;
1376;SDS011;682;52.502;13.488;2022-12-22T13:48:04;15.30;;;13.63;;
1376;SDS011;682;52.502;13.488;2022-12-22T13:50:37;15.70;;;13.20;;
1376;SDS011;682;52.502;13.488;2022-12-22T13:53:17;15.33;;;13.73;;
1376;SDS011;682;52.502;13.488;2022-12-22T13:56:02;16.70;;;13.63;;
1376;SDS011;682;52.502;13.488;2022-12-22T13:58:42;15.47;;;12.40;;
1376;SDS011;682;52.502;13.488;2022-12-22T14:01:14;13.87;;;12.37;;
1376;SDS011;682;52.502;13.488;2022-12-22T14:03:50;17.97;;;14.30;;
1376;SDS011;682;52.502;13.488;2022-12-22T14:06:25;15.97;;;14.27;;
1376;SDS011;682;52.502;13.488;2022-12-22T14:09:07;15.70;;;13.60;;
1376;SDS011;682;52.502;13.488;2022-12-22T14:11:38;15.93;;;14.23;;
1376;SDS011;682;52.502;13.488;2022-12-22T14:14:13;16.93;;;14.77;;
1376;SDS011;682;52.502;13.488;2022-12-22T14:16:49;16.30;;;14.60;;
1376;SDS011;682;52.502;13.488;2022-12-22T14:19:20;20.97;;;15.77;;
1376;SDS011;682;52.502;13.488;2022-12-22T14:21:53;16.83;;;15.00;;
1376;SDS011;682;52.502;13.488;2022-12-22T14:24:35;16.20;;;14.47;;
1376;SDS011;682;52.502;13.488;2022-12-22T14:27:22;22.00;;;14.90;;
1376;SDS011;682;52.502;13.488;2022-12-22T14:30:00;15.20;;;13.60;;
1376;SDS011;682;52.502;13.488;2022-12-22T14:32:38;16.27;;;13.70;;
1376;SDS011;682;52.502;13.488;2022-12-22T14:35:21;18.33;;;12.80;;
1376;SDS011;682;52.502;13.488;2022-12-22T14:37:51;16.77;;;13.53;;
1376;SDS011;682;52.502;13.488;2022-12-22T14:40:29;14.27;;;12.10;;
1376;SDS011;682;52.502;13.488;2022-12-22T14:42:59;13.50;;;11.77;;
1376;SDS011;682;52.502;13.488;2022-12-22T14:45:30;14.37;;;10.00;;
1376;SDS011;682;52.502;13.488;2022-12-22T14:47:57;13.17;;;10.00;;
1376;SDS011;682;52.502;13.488;2022-12-22T14:50:26;10.97;;;9.70;;
1376;SDS011;682;52.502;13.488;2022-12-22T14:52:54;13.03;;;10.57;;
1376;SDS011;682;52.502;13.488;2022-12-22T14:55:25;11.80;;;10.20;;
1376;SDS011;682;52.502;13.488;2022-12-22T14:57:55;10.33;;;8.13;;
1376;SDS011;682;52.502;13.488;2022-12-22T15:00:26;10.77;;;8.70;;
1376;SDS011;682;52.502;13.488;2022-12-22T15:02:58;10.00;;;9.00;;
1376;SDS011;682;52.502;13.488;2022-12-22T15:05:29;10.53;;;9.47;;
1376;SDS011;682;52.502;13.488;2022-12-22T15:08:04;10.20;;;8.73;;
1376;SDS011;682;52.502;13.488;2022-12-22T15:10:36;8.60;;;7.50;;
1376;SDS011;682;52.502;13.488;2022-12-22T15:13:09;8.87;;;7.67;;
1376;SDS011;682;52.502;13.488;2022-12-22T15:15:42;8.10;;;7.30;;
1376;SDS011;682;52.502;13.488;2022-12-22T15:18:11;8.17;;;6.57;;
1376;SDS011;682;52.502;13.488;2022-12-22T15:20:40;9.05;;;7.07;;
1376;SDS011;682;52.502;13.488;2022-12-22T15:23:08;8.40;;;7.50;;
1376;SDS011;682;52.502;13.488;2022-12-22T15:25:38;7.00;;;6.10;;
1376;SDS011;682;52.502;13.488;2022-12-22T15:28:07;9.10;;;7.50;;
1376;SDS011;682;52.502;13.488;2022-12-22T15:30:34;7.60;;;6.80;;
1376;SDS011;682;52.502;13.488;2022-12-22T15:33:07;8.63;;;7.30;;
1376;SDS011;682;52.502;13.488;2022-12-22T15:35:37;8.50;;;6.63;;
1376;SDS011;682;52.502;13.488;2022-12-22T15:38:08;8.53;;;7.53;;
1376;SDS011;682;52.502;13.488;2022-12-22T15:40:38;10.23;;;7.60;;
1376;SDS011;682;52.502;13.488;2022-12-22T15:43:05;9.40;;;8.27;;
1376;SDS011;682;52.502;13.488;2022-12-22T15:45:35;10.10;;;8.20;;
1376;SDS011;682;52.502;13.488;2022-12-22T15:51:21;11.60;;;9.80;;
1376;SDS011;682;52.502;13.488;2022-12-22T15:53:51;10.88;;;9.57;;
1376;SDS011;682;52.502;13.488;2022-12-22T15:56:20;12.20;;;9.40;;
1376;SDS011;682;52.502;13.488;2022-12-22T15:58:49;12.87;;;10.07;;
1376;SDS011;682;52.502;13.488;2022-12-22T16:01:17;11.80;;;10.52;;
1376;SDS011;682;52.502;13.488;2022-12-22T16:03:44;14.43;;;11.67;;
1376;SDS011;682;52.502;13.488;2022-12-22T16:06:11;12.70;;;11.20;;
1376;SDS011;682;52.502;13.488;2022-12-22T16:08:44;14.23;;;11.80;;
1376;SDS011;682;52.502;13.488;2022-12-22T16:11:13;13.57;;;11.38;;
1376;SDS011;682;52.502;13.488;2022-12-22T16:13:42;13.40;;;11.70;;
1376;SDS011;682;52.502;13.488;2022-12-22T16:16:10;12.67;;;11.37;;
1376;SDS011;682;52.502;13.488;2022-12-22T16:18:54;12.03;;;10.80;;
1376;SDS011;682;52.502;13.488;2022-12-22T16:21:23;14.40;;;12.40;;
1376;SDS011;682;52.502;13.488;2022-12-22T16:23:56;13.95;;;11.77;;